Time;durP1;ratioP1;P1;durP2;ratioP2;P2;SDS_P1;SDS_P2;PMS_P1;PMS_P2;Temp;Humidity;BMP_temperature;BMP_pressure;BME280_temperature;BME280_humidity;BME280_pressure;Samples;Min_cycle;Max_cycle;Signal;HPM_P1;HPM_P2
2023/05/13 00:00:16;;;;;;;13.13;12.37;;;;;;;-145.94;63.58;77236.75;5113499;28;20182;-68
2023/05/13 00:02:43;;;;;;;13.07;12.10;;;;;;;-145.94;63.30;77240.81;5113178;28;20217;-68
2023/05/13 00:05:09;;;;;;;13.93;12.77;;;;;;;-145.94;63.94;77240.81;5113313;28;20271;-68
2023/05/13 00:07:36;;;;;;;19.03;13.67;;;;;;;-145.94;64.25;77251.03;5116924;28;20559;-68
2023/05/13 00:10:02;;;;;;;15.70;14.40;;;;;;;-145.94;64.42;77265.28;5116985;28;20205;-68
2023/05/13 00:12:30;;;;;;;14.70;13.20;;;;;;;-145.94;64.19;77267.34;5117031;28;20189;-68
2023/05/13 00:14:56;;;;;;;13.70;12.73;;;;;;;-145.94;64.39;77287.72;5116714;28;20192;-68
2023/05/13 00:17:22;;;;;;;15.43;14.13;;;;;;;-145.94;64.98;77304.03;5116836;28;20224;-69
2023/05/13 00:19:49;;;;;;;13.47;12.67;;;;;;;-145.94;64.51;77310.16;5117159;28;20693;-69
2023/05/13 00:22:15;;;;;;;15.27;13.87;;;;;;;-145.94;64.90;77312.19;5116578;28;20264;-69
2023/05/13 00:24:41;;;;;;;13.27;12.37;;;;;;;-145.94;65.44;77310.16;5116552;28;20239;-69
2023/05/13 00:27:09;;;;;;;13.87;12.53;;;;;;;-145.94;65.33;77308.13;5116299;28;20231;-69
2023/05/13 00:29:35;;;;;;;13.90;12.83;;;;;;;-145.94;65.48;77308.13;5116872;28;20236;-69
2023/05/13 00:32:02;;;;;;;14.40;13.50;;;;;;;-145.94;65.63;77306.09;5116652;28;20558;-68
2023/05/13 00:34:28;;;;;;;15.70;14.33;;;;;;;-145.94;65.69;77306.09;5098069;28;20268;-68
2023/05/13 00:36:55;;;;;;;14.93;13.83;;;;;;;-145.94;65.96;77314.25;5116190;28;20240;-69
2023/05/13 00:39:21;;;;;;;15.30;14.00;;;;;;;-145.94;66.32;77320.34;5116479;28;20224;-68
2023/05/13 00:41:48;;;;;;;13.73;12.43;;;;;;;-145.94;66.29;77324.44;5116196;28;20238;-68
2023/05/13 00:44:14;;;;;;;14.57;13.47;;;;;;;-145.94;66.22;77320.34;5116641;28;20221;-68
2023/05/13 00:46:41;;;;;;;13.33;12.53;;;;;;;-145.94;66.75;77324.44;5116000;28;20295;-69
2023/05/13 00:49:07;;;;;;;13.40;12.50;;;;;;;-145.94;66.51;77326.47;5115991;28;20224;-69
2023/05/13 00:51:35;;;;;;;12.70;11.80;;;;;;;-145.94;66.58;77326.47;5116273;28;20271;-69
2023/05/13 00:54:03;;;;;;;15.03;13.60;;;;;;;-145.94;66.55;77328.50;5115959;28;20265;-69
2023/05/13 00:56:29;;;;;;;13.50;12.40;;;;;;;-145.94;66.88;77336.69;5115866;28;20246;-69
2023/05/13 00:58:56;;;;;;;15.60;14.07;;;;;;;-145.94;66.88;77336.69;5116132;28;20216;-69
2023/05/13 01:01:33;;;;;;;14.47;13.43;;;;;;;-145.94;67.14;77342.78;5116159;28;20647;-69
2023/05/13 01:04:11;;;;;;;14.27;13.30;;;;;;;-145.94;67.02;77338.72;5115846;28;20169;-69
2023/05/13 01:06:59;;;;;;;16.07;14.50;;;;;;;-145.94;66.92;77340.75;5115986;28;20197;-69
2023/05/13 01:09:56;;;;;;;14.50;12.83;;;;;;;-145.94;67.31;77340.75;5116099;28;20189;-69
2023/05/13 01:12:32;;;;;;;16.43;15.13;;;;;;;-145.94;66.74;77346.88;5115949;28;20178;-68
2023/05/13 01:15:20;;;;;;;15.53;14.17;;;;;;;-145.94;66.79;77353.00;5115575;28;20177;-68
2023/05/13 01:17:53;;;;;;;16.30;14.97;;;;;;;-145.94;67.32;77359.09;5114991;28;20546;-68
2023/05/13 01:20:22;;;;;;;16.07;14.63;;;;;;;-145.94;67.38;77365.22;5115510;28;20174;-68
2023/05/13 01:22:49;;;;;;;15.53;14.23;;;;;;;-145.94;67.05;77367.25;5115686;28;20193;-68
2023/05/13 01:25:16;;;;;;;15.27;14.23;;;;;;;-145.94;67.13;77363.19;5097302;28;20713;-68
2023/05/13 01:27:42;;;;;;;15.47;14.17;;;;;;;-145.94;67.26;77361.16;5096826;28;20213;-69
2023/05/13 01:30:11;;;;;;;19.20;14.23;;;;;;;-145.94;67.64;77363.19;5096955;28;20215;-68
2023/05/13 01:32:37;;;;;;;15.60;14.40;;;;;;;-145.94;67.68;77367.25;5096996;28;20226;-68
2023/05/13 01:35:06;;;;;;;15.70;14.20;;;;;;;-145.94;67.49;77371.34;5096848;28;20750;-68
2023/05/13 01:37:36;;;;;;;16.70;15.23;;;;;;;-145.94;67.69;77377.47;5097144;28;20213;-69
2023/05/13 01:40:05;;;;;;;15.07;13.83;;;;;;;-145.94;68.04;77381.53;5097446;28;20185;-69
2023/05/13 01:42:50;;;;;;;14.50;13.43;;;;;;;-145.94;68.11;77393.78;5096679;28;20192;-68
2023/05/13 01:45:17;;;;;;;15.27;13.90;;;;;;;-145.94;67.69;77389.69;5115277;28;20169;-68
2023/05/13 01:47:43;;;;;;;14.77;13.60;;;;;;;-145.94;68.14;77393.78;5096584;28;20213;-68
2023/05/13 01:50:10;;;;;;;15.53;14.20;;;;;;;-145.94;67.79;77391.75;5096512;28;20217;-68
2023/05/13 01:52:36;;;;;;;18.07;15.57;;;;;;;-145.94;68.07;77406.00;5096589;28;20238;-68
2023/05/13 01:55:03;;;;;;;16.70;14.97;;;;;;;-145.94;68.50;77401.94;5096533;28;20189;-68
2023/05/13 01:57:30;;;;;;;16.47;14.97;;;;;;;-145.94;68.45;77399.91;5096620;28;20213;-68
2023/05/13 01:59:56;;;;;;;14.53;13.47;;;;;;;-145.94;68.21;77401.94;5096411;28;20238;-68
2023/05/13 02:02:23;;;;;;;13.93;12.93;;;;;;;-145.94;68.29;77403.97;5096456;28;20200;-68
2023/05/13 02:04:50;;;;;;;14.50;13.40;;;;;;;-145.94;68.22;77406.00;5096637;28;20250;-68
2023/05/13 02:07:16;;;;;;;14.43;13.23;;;;;;;-145.94;68.33;77412.13;5096930;28;20258;-68
2023/05/13 02:09:44;;;;;;;14.60;13.37;;;;;;;-145.94;68.60;77414.16;5096117;28;20244;-69
2023/05/13 02:12:11;;;;;;;12.33;11.63;;;;;;;-145.94;68.42;77418.25;5096215;28;20200;-69
2023/05/13 02:14:37;;;;;;;13.23;12.43;;;;;;;-145.94;68.84;77422.34;5096202;28;20234;-69
2023/05/13 02:17:04;;;;;;;14.10;13.10;;;;;;;-145.94;68.38;77426.41;5114564;28;20254;-69
2023/05/13 02:19:30;;;;;;;14.97;13.83;;;;;;;-145.94;68.23;77420.28;5096044;28;20272;-69
2023/05/13 02:21:57;;;;;;;14.47;13.50;;;;;;;-145.94;68.69;77428.44;5096084;28;20238;-69
2023/05/13 02:24:24;;;;;;;14.50;13.50;;;;;;;-145.94;68.44;77438.66;5114501;28;20276;-69
2023/05/13 02:26:51;;;;;;;13.20;12.20;;;;;;;-145.94;68.41;77440.69;5113965;28;20269;-69
2023/05/13 02:29:18;;;;;;;14.57;13.37;;;;;;;-145.94;68.54;77446.81;5114553;28;20189;-69
2023/05/13 02:31:44;;;;;;;12.57;11.70;;;;;;;-145.94;68.61;77459.03;5114667;28;20185;-69
2023/05/13 02:34:11;;;;;;;13.50;12.70;;;;;;;-145.94;68.33;77459.03;5095818;28;20193;-69
2023/05/13 02:36:37;;;;;;;16.13;14.77;;;;;;;-145.94;68.49;77475.34;5095800;28;20618;-69
2023/05/13 02:39:04;;;;;;;14.20;13.20;;;;;;;-145.94;68.47;77475.34;5095755;28;20242;-69
2023/05/13 02:41:31;;;;;;;13.43;12.60;;;;;;;-145.94;68.58;77489.63;5095720;28;20655;-69
2023/05/13 02:43:57;;;;;;;15.13;13.93;;;;;;;-145.94;68.51;77489.63;5095665;28;20197;-69
2023/05/13 02:46:24;;;;;;;15.73;14.13;;;;;;;-145.94;68.69;77485.56;5096547;28;20217;-69
2023/05/13 02:48:53;;;;;;;19.83;14.47;;;;;;;-145.94;68.59;77491.66;5095587;28;20241;-69
2023/05/13 02:51:19;;;;;;;15.73;14.40;;;;;;;-145.94;68.60;77501.88;5113870;28;20617;-69
2023/05/13 02:53:46;;;;;;;17.40;15.80;;;;;;;-145.94;68.53;77497.78;5095676;28;20238;-69
2023/05/13 02:56:15;;;;;;;17.90;16.20;;;;;;;-145.94;68.80;77495.75;5095471;28;20216;-69
2023/05/13 02:58:42;;;;;;;18.33;16.13;;;;;;;-145.94;68.82;77495.75;5095558;28;20197;-69
2023/05/13 03:01:09;;;;;;;17.33;15.50;;;;;;;-145.94;68.96;77499.84;5095485;28;20185;-69
2023/05/13 03:03:35;;;;;;;16.13;14.73;;;;;;;-145.94;68.89;77497.78;5095561;28;20181;-69
2023/05/13 03:06:03;;;;;;;17.83;16.10;;;;;;;-145.94;69.10;77491.66;5095388;28;20185;-69
2023/05/13 03:08:30;;;;;;;17.80;16.30;;;;;;;-145.94;68.91;77493.72;5113919;28;20265;-69
2023/05/13 03:10:57;;;;;;;17.60;16.03;;;;;;;-145.94;69.01;77499.84;5095341;28;20205;-68
2023/05/13 03:13:24;;;;;;;22.87;18.03;;;;;;;-145.94;68.94;77501.88;5095402;28;20619;-68
2023/05/13 03:15:50;;;;;;;17.97;16.23;;;;;;;-145.94;69.30;77510.03;5113571;28;20251;-68
2023/05/13 03:18:17;;;;;;;25.47;16.10;;;;;;;-145.94;68.98;77512.06;5113488;28;20254;-69
2023/05/13 03:20:43;;;;;;;16.93;15.40;;;;;;;-145.94;69.18;77520.22;5095301;28;20234;-69
2023/05/13 03:23:10;;;;;;;17.13;15.70;;;;;;;-145.94;69.13;77518.19;5095289;28;20201;-69
2023/05/13 03:25:36;;;;;;;16.03;14.73;;;;;;;-145.94;69.08;77512.06;5114077;28;20211;-69
2023/05/13 03:28:03;;;;;;;14.27;13.23;;;;;;;-145.94;69.38;77512.06;5095225;28;20647;-69
2023/05/13 03:30:34;;;;;;;15.90;14.57;;;;;;;-145.94;68.98;77522.25;5095188;28;20201;-69
2023/05/13 03:33:05;;;;;;;17.73;15.90;;;;;;;-145.94;69.05;77530.44;5095221;28;20666;-69
2023/05/13 03:35:32;;;;;;;16.53;14.63;;;;;;;-145.94;68.70;77550.81;5095453;28;20683;-69
2023/05/13 03:37:58;;;;;;;16.53;15.13;;;;;;;-145.94;68.81;77546.75;5095124;28;20750;-69
2023/05/13 03:40:25;;;;;;;16.00;14.30;;;;;;;-145.94;68.90;77556.94;5113949;28;20219;-69
2023/05/13 03:42:51;;;;;;;14.83;13.70;;;;;;;-145.94;68.80;77554.91;5099107;28;20193;-69
2023/05/13 03:45:20;;;;;;;17.93;16.23;;;;;;;-145.94;69.02;77552.84;5099071;28;20212;-69
2023/05/13 03:47:49;;;;;;;15.90;14.60;;;;;;;-145.94;69.31;77554.91;5098948;28;20205;-69
2023/05/13 03:50:17;;;;;;;16.83;15.27;;;;;;;-145.94;69.22;77552.84;5098810;28;20641;-69
2023/05/13 03:52:44;;;;;;;17.90;16.30;;;;;;;-145.94;69.13;77548.78;5098905;28;20189;-69
2023/05/13 03:55:13;;;;;;;16.87;15.53;;;;;;;-145.94;69.50;77548.78;5098886;28;20189;-68
2023/05/13 03:57:44;;;;;;;16.10;14.70;;;;;;;-145.94;69.32;77556.94;5098741;28;20205;-68
2023/05/13 04:00:11;;;;;;;14.90;13.57;;;;;;;-145.94;69.02;77571.22;5098741;28;20197;-68
2023/05/13 04:02:40;;;;;;;21.40;16.47;;;;;;;-145.94;68.93;77575.28;5117539;28;20643;-68
2023/05/13 04:05:08;;;;;;;15.43;14.27;;;;;;;-145.94;69.11;77583.44;5099293;28;20184;-68
2023/05/13 04:07:35;;;;;;;16.13;14.63;;;;;;;-145.94;69.31;77587.53;5116773;28;20698;-68
2023/05/13 04:10:01;;;;;;;15.97;14.57;;;;;;;-145.94;69.43;77595.69;5098524;28;20266;-68
2023/05/13 04:12:30;;;;;;;16.53;15.13;;;;;;;-145.94;69.50;77593.66;5098556;28;20193;-68
2023/05/13 04:14:56;;;;;;;16.07;14.67;;;;;;;-145.94;69.70;77591.63;5116728;28;20217;-68
2023/05/13 04:17:23;;;;;;;16.10;14.70;;;;;;;-145.94;69.64;77593.66;5116892;28;20233;-69
2023/05/13 04:19:53;;;;;;;16.37;14.70;;;;;;;-145.94;69.69;77591.63;5117184;28;20252;-69
2023/05/13 04:22:20;;;;;;;19.93;13.93;;;;;;;-145.94;69.83;77593.66;5098346;28;20211;-69
2023/05/13 04:24:50;;;;;;;15.90;14.30;;;;;;;-145.94;69.74;77591.63;5117085;28;20185;-69
2023/05/13 04:27:17;;;;;;;15.93;14.27;;;;;;;-145.94;69.82;77589.56;5116484;28;20228;-69
2023/05/13 04:29:44;;;;;;;15.03;13.90;;;;;;;-145.94;69.87;77587.53;5098099;28;20282;-69
2023/05/13 04:32:14;;;;;;;16.47;15.10;;;;;;;-145.94;69.67;77591.63;5098420;28;20189;-69
2023/05/13 04:34:42;;;;;;;16.37;14.87;;;;;;;-145.94;69.77;77581.41;5116669;28;20195;-69
2023/05/13 04:37:08;;;;;;;18.17;16.57;;;;;;;-145.94;70.00;77581.41;5097999;28;20270;-69
2023/05/13 04:39:35;;;;;;;16.60;15.27;;;;;;;-145.94;69.94;77585.50;5097960;28;20250;-69
2023/05/13 04:42:01;;;;;;;17.73;15.93;;;;;;;-145.94;69.89;77583.44;5097964;28;20196;-69
2023/05/13 04:44:28;;;;;;;21.03;15.73;;;;;;;-145.94;70.08;77575.28;5098197;28;20655;-69
2023/05/13 04:46:55;;;;;;;17.13;15.67;;;;;;;-145.94;70.09;77571.22;5097818;28;20240;-69
2023/05/13 04:49:21;;;;;;;18.47;16.67;;;;;;;-145.94;70.00;77567.13;5097761;28;20189;-69
2023/05/13 04:51:48;;;;;;;19.73;17.57;;;;;;;-145.94;70.31;77554.91;5115452;28;20234;-69
2023/05/13 04:54:15;;;;;;;19.63;17.73;;;;;;;-145.94;70.08;77561.03;5097439;28;20189;-69
2023/05/13 04:56:41;;;;;;;22.97;18.17;;;;;;;-145.94;70.39;77546.75;5115896;28;20209;-69
2023/05/13 04:59:08;;;;;;;19.23;17.27;;;;;;;-145.94;70.27;77540.63;5115897;28;20717;-69
2023/05/13 05:01:35;;;;;;;18.57;16.83;;;;;;;-145.94;70.35;77536.53;5098079;28;20699;-69
2023/05/13 05:04:01;;;;;;;25.90;15.87;;;;;;;-145.94;70.39;77532.47;5116086;28;20260;-69
2023/05/13 05:06:28;;;;;;;20.10;18.10;;;;;;;-145.94;70.54;77532.47;5097472;28;20258;-69
2023/05/13 05:08:55;;;;;;;18.87;16.97;;;;;;;-145.94;70.40;77524.31;5098181;28;20249;-69
2023/05/13 05:11:23;;;;;;;18.23;16.50;;;;;;;-145.94;70.27;77512.06;5097359;28;20211;-69
2023/05/13 05:13:50;;;;;;;20.63;18.00;;;;;;;-145.94;70.81;77508.00;5098172;28;20585;-69
2023/05/13 05:16:17;;;;;;;18.83;17.10;;;;;;;-145.94;70.66;77508.00;5115453;28;20192;-69
2023/05/13 05:18:43;;;;;;;19.53;17.40;;;;;;;-145.94;70.49;77499.84;5097459;28;20275;-69
2023/05/13 05:21:10;;;;;;;19.73;17.93;;;;;;;-145.94;70.31;77487.59;5098310;28;20189;-69
2023/05/13 05:23:38;;;;;;;19.63;17.67;;;;;;;-145.94;70.83;77489.63;5097129;28;20659;-69
2023/05/13 05:26:04;;;;;;;21.60;18.77;;;;;;;-145.94;71.00;77481.47;5097136;28;20284;-69
2023/05/13 05:28:41;;;;;;;23.07;18.50;;;;;;;-145.94;70.69;77475.34;5096986;28;20206;-69
2023/05/13 05:31:08;;;;;;;23.20;18.63;;;;;;;-145.94;70.90;77467.19;5096930;28;20698;-69
2023/05/13 05:33:35;;;;;;;21.93;19.50;;;;;;;-145.94;70.95;77446.81;5096909;28;20197;-69
2023/05/13 05:36:02;;;;;;;22.23;19.83;;;;;;;-145.94;70.68;77436.59;5096797;28;20193;-69
2023/05/13 05:38:29;;;;;;;23.03;20.53;;;;;;;-145.94;70.77;77418.25;5096891;28;20563;-69
2023/05/13 05:40:57;;;;;;;22.60;20.20;;;;;;;-145.94;71.04;77403.97;5096783;28;20234;-69
2023/05/13 05:43:24;;;;;;;23.27;20.73;;;;;;;-145.94;71.07;77391.75;5097648;28;20185;-69
2023/05/13 05:45:51;;;;;;;23.13;20.13;;;;;;;-145.94;71.31;77377.47;5096733;28;20241;-69
2023/05/13 05:48:18;;;;;;;25.37;21.83;;;;;;;-145.94;70.93;77361.16;5096818;28;20213;-69
2023/05/13 05:50:46;;;;;;;29.53;21.87;;;;;;;-145.94;71.06;77340.75;5096746;28;20217;-69
2023/05/13 05:53:17;;;;;;;23.53;21.33;;;;;;;-145.94;70.79;77326.47;5096554;28;20728;-69
2023/05/13 05:55:44;;;;;;;24.10;20.90;;;;;;;-145.94;70.33;77310.16;5096481;28;20667;-69
2023/05/13 05:58:15;;;;;;;22.53;19.93;;;;;;;-145.94;69.91;77289.78;5096467;28;20213;-70
2023/05/13 06:00:42;;;;;;;23.97;20.07;;;;;;;-145.94;69.85;77277.53;5097297;28;20272;-69
2023/05/13 06:03:08;;;;;;;25.57;19.60;;;;;;;-145.94;69.58;77267.34;5096904;28;20256;-69
2023/05/13 06:05:35;;;;;;;22.73;20.57;;;;;;;-145.94;69.15;77259.19;5096210;28;20732;-69
2023/05/13 06:08:01;;;;;;;24.07;19.47;;;;;;;-145.94;68.84;77253.06;5096311;28;20213;-69
2023/05/13 06:10:28;;;;;;;22.97;20.63;;;;;;;-145.94;68.34;77242.88;5096152;28;20643;-69
2023/05/13 06:12:55;;;;;;;23.30;19.93;;;;;;;-145.94;67.71;77232.66;5096181;28;20284;-69
2023/05/13 06:15:22;;;;;;;21.47;19.30;;;;;;;-145.94;67.54;77228.59;5114365;28;20675;-69
2023/05/13 06:17:48;;;;;;;22.03;19.70;;;;;;;-145.94;67.31;77216.34;5114265;28;20205;-70
2023/05/13 06:20:14;;;;;;;29.63;22.37;;;;;;;-145.94;67.03;77210.22;5096301;28;20186;-70
2023/05/13 06:22:41;;;;;;;21.33;19.37;;;;;;;-145.94;66.92;77193.91;5114204;28;20267;-70
2023/05/13 06:25:08;;;;;;;22.97;19.77;;;;;;;-145.94;66.40;77187.78;5096067;28;20190;-70
2023/05/13 06:27:35;;;;;;;22.53;20.17;;;;;;;-145.94;66.35;77171.47;5095922;28;20216;-69
2023/05/13 06:30:02;;;;;;;19.93;18.27;;;;;;;-145.94;65.06;77165.38;5114078;28;20205;-69
2023/05/13 06:32:28;;;;;;;26.90;18.40;;;;;;;-145.94;63.89;77144.97;5095828;28;20216;-69
2023/05/13 06:34:54;;;;;;;18.83;17.03;;;;;;;-145.94;63.68;77126.63;5095813;28;20224;-69
2023/05/13 06:37:22;;;;;;;18.37;16.77;;;;;;;-145.94;62.86;77098.06;5095812;28;20204;-69
2023/05/13 06:39:48;;;;;;;18.43;16.50;;;;;;;-145.94;62.04;77091.94;5114236;28;20663;-69
2023/05/13 06:42:17;;;;;;;15.93;14.83;;;;;;;-145.94;61.33;77079.72;5095679;28;20196;-69
2023/05/13 06:44:52;;;;;;;21.50;15.33;;;;;;;-145.94;60.71;77081.75;5095711;28;20689;-69
2023/05/13 06:47:24;;;;;;;15.90;14.60;;;;;;;-145.94;60.93;77071.56;5096421;28;20213;-70
2023/05/13 06:49:51;;;;;;;16.70;15.23;;;;;;;-145.94;60.35;77075.63;5094336;28;20196;-69
2023/05/13 06:52:17;;;;;;;20.97;14.83;;;;;;;-145.94;59.63;77081.75;5113528;28;20170;-70
2023/05/13 06:54:44;;;;;;;19.57;14.33;;;;;;;-145.94;59.48;77081.75;5113801;28;20230;-69
2023/05/13 06:57:11;;;;;;;16.67;15.47;;;;;;;-145.94;59.55;77085.84;5113503;28;20243;-69
2023/05/13 06:59:37;;;;;;;16.10;14.53;;;;;;;-145.94;59.49;77085.84;5113497;28;20222;-69
2023/05/13 07:02:03;;;;;;;15.27;14.27;;;;;;;-145.94;58.92;77071.56;5114022;28;20260;-69
2023/05/13 07:04:30;;;;;;;16.10;14.83;;;;;;;-145.94;59.13;77077.69;5113970;28;20659;-69
2023/05/13 07:06:56;;;;;;;21.57;15.17;;;;;;;-145.94;57.97;77096.03;5113679;28;20232;-69
2023/05/13 07:09:23;;;;;;;15.30;14.00;;;;;;;-145.94;57.99;77098.06;5113614;28;20277;-69
2023/05/13 07:11:49;;;;;;;15.20;14.07;;;;;;;-145.94;57.31;77087.88;5113591;28;20279;-69
2023/05/13 07:14:16;;;;;;;16.23;14.67;;;;;;;-145.94;57.51;77087.88;5113831;28;20193;-69
2023/05/13 07:16:42;;;;;;;14.87;13.53;;;;;;;-145.94;57.61;77096.03;5116672;28;20201;-69
2023/05/13 07:19:09;;;;;;;13.80;12.50;;;;;;;-145.94;58.08;77091.94;5117814;28;20189;-69
2023/05/13 07:21:36;;;;;;;14.37;13.17;;;;;;;-145.94;57.75;77077.69;5118301;28;20265;-69
2023/05/13 07:24:04;;;;;;;15.20;14.20;;;;;;;-145.94;58.16;77057.28;5117891;28;20267;-69
2023/05/13 07:26:31;;;;;;;15.10;13.67;;;;;;;-145.94;57.92;77045.03;5117711;28;20205;-70
2023/05/13 07:28:58;;;;;;;19.27;13.97;;;;;;;-145.94;57.81;77043.00;5117934;28;20672;-70
2023/05/13 07:31:25;;;;;;;18.13;14.43;;;;;;;-145.94;56.44;77051.16;5117351;28;20720;-69
2023/05/13 07:33:51;;;;;;;15.03;13.53;;;;;;;-145.94;55.41;77049.13;5118204;28;20213;-69
2023/05/13 07:36:17;;;;;;;15.43;13.80;;;;;;;-145.94;56.24;77043.00;5117399;28;20230;-69
2023/05/13 07:38:44;;;;;;;14.20;12.80;;;;;;;-145.94;56.80;77016.50;5117954;28;20647;-69
2023/05/13 07:41:10;;;;;;;15.50;13.93;;;;;;;-145.94;57.09;77002.22;5117936;28;20277;-69
2023/05/13 07:43:39;;;;;;;15.93;14.47;;;;;;;-145.94;57.54;76985.91;5117566;28;20267;-69
2023/05/13 07:46:06;;;;;;;17.73;15.87;;;;;;;-145.94;57.48;76971.63;5117145;28;20280;-70
2023/05/13 07:48:32;;;;;;;16.40;14.97;;;;;;;-145.94;57.70;76955.31;5117771;28;20185;-69
2023/05/13 07:50:59;;;;;;;15.03;13.93;;;;;;;-145.94;56.44;76934.94;5117135;28;20292;-69
2023/05/13 07:53:25;;;;;;;15.93;14.47;;;;;;;-145.94;56.36;76914.53;5117158;28;20209;-68
2023/05/13 07:55:51;;;;;;;14.13;13.03;;;;;;;-145.94;55.95;76892.09;5117174;28;20272;-68
2023/05/13 07:58:19;;;;;;;15.37;14.20;;;;;;;-145.94;56.11;76875.78;5118106;28;20283;-70
2023/05/13 08:00:45;;;;;;;14.57;13.53;;;;;;;-145.94;55.77;76863.56;5117046;28;20216;-69
2023/05/13 08:03:12;;;;;;;18.53;13.33;;;;;;;-145.94;54.72;76861.50;5116999;28;20268;-69
2023/05/13 08:05:38;;;;;;;12.80;11.93;;;;;;;-145.94;54.87;76855.41;5117249;28;20181;-69
2023/05/13 08:08:05;;;;;;;12.33;11.70;;;;;;;-145.94;54.78;76841.13;5116825;28;20241;-70
2023/05/13 08:10:31;;;;;;;14.03;12.77;;;;;;;-145.94;53.82;76843.16;5116778;28;20683;-69
2023/05/13 08:12:59;;;;;;;13.23;12.23;;;;;;;-145.94;53.24;76832.97;5116775;28;20267;-69
2023/05/13 08:15:27;;;;;;;13.40;12.33;;;;;;;-145.94;53.81;76814.63;5116803;28;20185;-69
2023/05/13 08:17:53;;;;;;;12.20;11.37;;;;;;;-145.94;53.08;76800.34;5116999;28;20749;-70
2023/05/13 08:20:21;;;;;;;12.17;11.17;;;;;;;-145.94;53.07;76796.25;5116917;28;20185;-69
2023/05/13 08:22:48;;;;;;;12.03;11.33;;;;;;;-145.94;53.23;76782.00;5117216;28;20185;-69
2023/05/13 08:25:14;;;;;;;10.73;10.27;;;;;;;-145.94;52.23;76767.72;5116559;28;20683;-69
2023/05/13 08:27:41;;;;;;;10.93;10.33;;;;;;;-145.94;51.89;76755.47;5116356;28;20713;-70
2023/05/13 08:30:08;;;;;;;11.50;10.90;;;;;;;-145.94;52.55;76741.19;5117521;28;20527;-69
2023/05/13 08:32:34;;;;;;;11.93;11.23;;;;;;;-145.94;52.08;76710.63;5116370;28;20223;-69
2023/05/13 08:35:01;;;;;;;11.13;10.53;;;;;;;-145.94;51.25;76696.34;5116488;28;20188;-69
2023/05/13 08:37:27;;;;;;;10.03;9.63;;;;;;;-145.94;50.53;76688.19;5116533;28;20254;-68
2023/05/13 08:39:55;;;;;;;10.10;9.43;;;;;;;-145.94;51.13;76657.59;5116296;28;20177;-69
2023/05/13 08:42:22;;;;;;;9.97;9.37;;;;;;;-145.94;50.58;76655.56;5116218;28;20173;-69
2023/05/13 08:44:51;;;;;;;10.20;9.70;;;;;;;-145.94;48.72;76655.56;5116691;28;20216;-69
2023/05/13 08:47:29;;;;;;;9.70;9.00;;;;;;;-145.94;48.46;76645.38;5116074;28;20763;-69
2023/05/13 08:49:55;;;;;;;9.00;8.30;;;;;;;-145.94;49.11;76643.31;5116213;28;20185;-69
2023/05/13 08:52:22;;;;;;;8.53;8.27;;;;;;;-145.94;47.77;76637.22;5115928;28;20243;-69
2023/05/13 08:54:48;;;;;;;9.67;8.47;;;;;;;-145.94;48.20;76633.13;5116012;28;20209;-69
2023/05/13 08:57:15;;;;;;;9.60;9.07;;;;;;;-145.94;48.38;76622.94;5115785;28;20215;-69
2023/05/13 08:59:42;;;;;;;10.77;8.97;;;;;;;-145.94;48.13;76612.75;5116253;28;20214;-69
2023/05/13 09:02:09;;;;;;;8.80;8.50;;;;;;;-145.94;46.02;76606.63;5115788;28;20189;-69
2023/05/13 09:04:37;;;;;;;7.77;7.57;;;;;;;-145.94;45.75;76602.53;5115728;28;20197;-69
2023/05/13 09:07:04;;;;;;;8.60;8.10;;;;;;;-145.94;45.30;76582.16;5115839;28;20220;-69
2023/05/13 09:09:31;;;;;;;9.67;8.80;;;;;;;-145.94;44.40;76580.13;5115664;28;20714;-69
2023/05/13 09:11:58;;;;;;;8.23;7.93;;;;;;;-145.94;45.56;76565.84;5115517;28;20627;-69
2023/05/13 09:14:31;;;;;;;8.23;7.73;;;;;;;-145.94;44.63;76563.81;5115396;28;20584;-69
2023/05/13 09:16:59;;;;;;;17.23;8.40;;;;;;;-145.94;45.12;76547.50;5115752;28;20201;-69
2023/05/13 09:19:26;;;;;;;12.17;6.80;;;;;;;-145.94;43.32;76529.13;5115478;28;20715;-69
2023/05/13 09:21:53;;;;;;;13.80;7.10;;;;;;;-145.94;42.17;76520.97;5115309;28;20184;-69
2023/05/13 09:24:22;;;;;;;7.30;6.93;;;;;;;-145.94;42.01;76490.41;5115560;28;20272;-68
2023/05/13 09:26:50;;;;;;;7.97;7.47;;;;;;;-145.94;41.24;76476.13;5115086;28;20216;-69
2023/05/13 09:29:25;;;;;;;7.17;6.77;;;;;;;-145.94;41.33;76470.00;5115598;28;20189;-68
2023/05/13 09:31:54;;;;;;;8.10;7.10;;;;;;;-145.94;41.76;76472.03;5115171;28;20189;-69
2023/05/13 09:34:27;;;;;;;7.10;6.57;;;;;;;-145.94;41.80;76474.09;5115458;28;20265;-69
2023/05/13 09:36:55;;;;;;;14.87;7.60;;;;;;;-145.94;41.81;76478.16;5115498;28;20296;-69
2023/05/13 09:39:21;;;;;;;7.53;7.03;;;;;;;-145.94;41.67;76478.16;5114699;28;20191;-69
2023/05/13 09:41:48;;;;;;;7.47;6.50;;;;;;;-145.94;41.25;76476.13;5115594;28;20201;-69
2023/05/13 09:44:14;;;;;;;7.77;7.43;;;;;;;-145.94;40.91;76465.94;5115020;28;20178;-69
2023/05/13 09:46:42;;;;;;;7.03;6.47;;;;;;;-145.94;41.65;76451.66;5115170;28;20205;-69
2023/05/13 09:49:09;;;;;;;7.07;6.83;;;;;;;-145.94;40.02;76435.34;5115416;28;20232;-68
2023/05/13 09:51:35;;;;;;;7.70;6.80;;;;;;;-145.94;40.84;76425.16;5096985;28;20236;-69
2023/05/13 09:54:06;;;;;;;7.10;6.90;;;;;;;-145.94;40.87;76408.84;5114769;28;20268;-69
2023/05/13 09:56:34;;;;;;;7.60;7.07;;;;;;;-145.94;40.11;76390.50;5114824;28;20295;-68
2023/05/13 09:59:02;;;;;;;7.63;7.13;;;;;;;-145.94;39.50;76390.50;5115213;28;20191;-68
2023/05/13 10:01:29;;;;;;;7.53;7.40;;;;;;;-145.94;38.70;76380.28;5114498;28;20181;-68
2023/05/13 10:04:00;;;;;;;7.83;7.33;;;;;;;-145.94;40.15;76378.25;5114909;28;20180;-69
2023/05/13 10:06:29;;;;;;;7.23;7.07;;;;;;;-145.94;38.60;76366.03;5114880;28;20205;-68
2023/05/13 10:09:03;;;;;;;7.57;7.33;;;;;;;-145.94;39.52;76359.91;5114852;28;20588;-69
2023/05/13 10:11:34;;;;;;;7.90;7.20;;;;;;;-145.94;39.07;76349.72;5114720;28;20659;-68
2023/05/13 10:14:04;;;;;;;7.83;7.63;;;;;;;-145.94;38.74;76349.72;5115002;28;20182;-69
2023/05/13 10:16:31;;;;;;;7.47;7.00;;;;;;;-145.94;38.32;76349.72;5114662;28;20678;-69
2023/05/13 10:18:59;;;;;;;7.90;7.07;;;;;;;-145.94;39.05;76339.50;5114223;28;20655;-68
2023/05/13 10:21:26;;;;;;;6.93;6.60;;;;;;;-145.94;39.41;76315.03;5114859;28;20656;-68
2023/05/13 10:23:53;;;;;;;8.40;7.70;;;;;;;-145.94;39.04;76308.94;5114276;28;20272;-68
2023/05/13 10:26:20;;;;;;;7.90;7.30;;;;;;;-145.94;39.46;76302.81;5114071;28;20181;-68
2023/05/13 10:28:48;;;;;;;8.07;7.73;;;;;;;-145.94;40.04;76298.72;5114122;28;20195;-69
2023/05/13 10:31:16;;;;;;;7.70;7.30;;;;;;;-145.94;39.24;76300.78;5114498;28;20247;-70
2023/05/13 10:33:44;;;;;;;7.40;7.20;;;;;;;-145.94;39.50;76294.66;5114122;28;20231;-69
2023/05/13 10:36:47;;;;;;;11.40;7.50;;;;;;;-145.94;40.76;76294.66;5114316;28;20520;-69
2023/05/13 10:39:53;;;;;;;7.47;6.97;;;;;;;-145.94;39.48;76296.69;5114173;28;20173;-69
2023/05/13 10:42:34;;;;;;;7.20;6.93;;;;;;;-145.94;39.61;76278.34;5062993;28;20211;-69
2023/05/13 10:45:01;;;;;;;6.57;6.47;;;;;;;-145.94;40.31;76276.31;5114266;28;20169;-68
2023/05/13 10:47:31;;;;;;;9.50;7.70;;;;;;;-145.94;39.97;76268.16;5113847;28;20276;-68
2023/05/13 10:50:00;;;;;;;7.17;6.63;;;;;;;-145.94;39.43;76266.13;5113566;28;20197;-68
2023/05/13 10:52:42;;;;;;;7.43;6.47;;;;;;;-145.94;39.77;76257.97;5113733;28;20204;-68
2023/05/13 10:55:15;;;;;;;8.17;6.67;;;;;;;-145.94;39.29;76260.00;5113802;28;20207;-69
2023/05/13 10:58:02;;;;;;;8.87;6.90;;;;;;;-145.94;37.61;76260.00;5114032;28;20288;-69
2023/05/13 11:00:30;;;;;;;7.97;7.43;;;;;;;-145.94;38.09;76260.00;5114290;28;20173;-68
2023/05/13 11:02:57;;;;;;;6.90;6.60;;;;;;;-145.94;37.41;76235.53;5113726;28;20190;-68
2023/05/13 11:05:23;;;;;;;6.90;6.70;;;;;;;-145.94;35.80;76227.38;5113706;28;20181;-69
2023/05/13 11:07:55;;;;;;;6.07;5.97;;;;;;;-145.94;37.72;76200.88;5113682;28;20742;-68